Portland, North Dakota
Current Conditions -  °F | °C
As of 9:53 PM on Friday 24 Oct 2014 (Local Time) from KGFK Reporting Station
Scattered Clouds Scattered Clouds  
Wind Chill: 11°   Ceiling: Unl
Heat Index: 11°   Visibility: 10mi
Dew Point:   Wind: 8mph
Humidity: 53%   Direction: 280°W
Pressure: 29.87"   Gusts: NA
Location:  47.5°N, 97.37°W
Report Text: KGFK 250253Z 28007KT 10SM SCT250 11/02 A2987 RMK AO2 SLP118 T01110017 53023
Loading
Personal Weather Stations






























Interactive Weather Map
Tropical Storm Tracking
New forecast layout! Learn more

10-Day Weather Forecast

Advertisements
Track Severe Weather on mobile